createdAt,value
2017-11-15T00:00:34.497Z,4.90
2017-11-15T00:03:02.030Z,4.90
2017-11-15T00:05:29.565Z,4.90
2017-11-15T00:07:57.879Z,5.10
2017-11-15T00:10:27.796Z,5.00
2017-11-15T00:12:55.333Z,5.20
2017-11-15T00:15:22.892Z,5.20
2017-11-15T00:17:50.400Z,5.10
2017-11-15T00:20:17.916Z,5.10
2017-11-15T00:22:45.464Z,5.10
2017-11-15T00:25:12.983Z,5.00
2017-11-15T00:27:41.267Z,5.30
2017-11-15T00:30:08.817Z,5.20
2017-11-15T00:32:36.340Z,5.10
2017-11-15T00:35:04.617Z,4.90
2017-11-15T00:37:32.175Z,5.00
2017-11-15T00:39:59.707Z,4.90
2017-11-15T00:42:27.237Z,4.90
2017-11-15T00:44:55.560Z,5.10
2017-11-15T00:47:23.097Z,5.00
2017-11-15T00:49:51.383Z,4.90
2017-11-15T00:52:18.945Z,5.20
2017-11-15T00:54:47.232Z,5.00
2017-11-15T00:57:14.785Z,4.90
2017-11-15T00:59:42.337Z,5.30
2017-11-15T01:02:09.882Z,5.10
2017-11-15T01:04:37.429Z,5.00
2017-11-15T01:07:04.979Z,5.00
2017-11-15T01:09:32.521Z,4.90
2017-11-15T01:12:00.040Z,4.90
2017-11-15T01:14:27.592Z,5.10
2017-11-15T01:16:55.112Z,5.10
2017-11-15T01:19:23.398Z,5.40
2017-11-15T01:21:50.939Z,5.30
2017-11-15T01:24:18.460Z,5.40
2017-11-15T01:26:46.764Z,5.20
2017-11-15T01:29:14.320Z,5.20
2017-11-15T01:31:41.849Z,5.40
2017-11-15T01:34:09.367Z,5.30
2017-11-15T01:36:36.912Z,5.30
2017-11-15T01:39:04.480Z,5.40
2017-11-15T01:41:32.006Z,5.10
2017-11-15T01:43:59.560Z,5.00
2017-11-15T01:46:27.134Z,4.90
2017-11-15T01:48:54.669Z,5.00
2017-11-15T01:51:22.279Z,4.90
2017-11-15T01:53:49.792Z,5.00
2017-11-15T01:56:17.306Z,5.20
2017-11-15T01:58:44.839Z,5.10
2017-11-15T02:01:14.066Z,5.00
2017-11-15T02:03:42.354Z,4.90
2017-11-15T02:06:11.962Z,4.90
2017-11-15T02:08:39.491Z,5.20
2017-11-15T02:11:07.023Z,5.20
2017-11-15T02:13:35.375Z,4.90
2017-11-15T02:16:02.901Z,5.00
2017-11-15T02:18:30.431Z,5.30
2017-11-15T02:20:57.972Z,5.30
2017-11-15T02:23:25.508Z,4.90
2017-11-15T02:25:53.027Z,5.10
2017-11-15T02:28:20.623Z,5.20
2017-11-15T02:30:48.147Z,5.40
2017-11-15T02:33:15.683Z,4.90
2017-11-15T02:35:43.234Z,5.20
2017-11-15T02:38:10.763Z,5.30
2017-11-15T02:40:38.287Z,5.30
2017-11-15T02:43:05.847Z,4.90
2017-11-15T02:45:33.383Z,5.20
2017-11-15T02:48:00.922Z,5.20
2017-11-15T02:50:28.479Z,5.20
2017-11-15T02:52:56.004Z,5.10
2017-11-15T02:55:24.283Z,5.00
2017-11-15T02:57:51.827Z,5.10
2017-11-15T03:00:19.359Z,5.00
2017-11-15T03:02:46.892Z,4.80
2017-11-15T03:05:15.216Z,4.60
2017-11-15T03:07:42.737Z,4.60
2017-11-15T03:10:10.255Z,4.60
2017-11-15T03:12:37.802Z,4.70
2017-11-15T03:15:05.336Z,4.90
2017-11-15T03:17:32.856Z,5.00
2017-11-15T03:20:00.397Z,4.70
2017-11-15T03:22:27.925Z,5.00
2017-11-15T03:24:55.452Z,5.00
2017-11-15T03:27:22.998Z,4.90
2017-11-15T03:29:50.520Z,4.70
2017-11-15T03:32:18.047Z,4.60
2017-11-15T03:34:46.360Z,4.70
2017-11-15T03:37:13.884Z,4.80
2017-11-15T03:39:46.723Z,4.80
2017-11-15T03:42:17.690Z,4.70
2017-11-15T03:44:47.625Z,4.60
2017-11-15T03:47:17.467Z,4.90
2017-11-15T03:49:47.413Z,4.70
2017-11-15T03:52:14.941Z,4.60
2017-11-15T03:54:42.479Z,4.40
2017-11-15T03:57:10.028Z,4.40
2017-11-15T03:59:37.545Z,4.50
2017-11-15T04:02:05.070Z,4.60
2017-11-15T04:04:32.620Z,4.50
2017-11-15T04:07:00.141Z,4.20
2017-11-15T04:09:27.645Z,4.70
2017-11-15T04:11:55.180Z,4.40
2017-11-15T04:14:23.456Z,4.20
2017-11-15T04:16:50.979Z,4.10
2017-11-15T04:19:18.534Z,4.20
2017-11-15T04:21:46.057Z,4.20
2017-11-15T04:24:13.585Z,4.60
2017-11-15T04:26:41.123Z,4.20
2017-11-15T04:29:09.414Z,4.50
2017-11-15T04:31:36.933Z,4.10
2017-11-15T04:34:04.485Z,4.10
2017-11-15T04:36:32.013Z,4.10
2017-11-15T04:39:00.313Z,4.20
2017-11-15T04:41:27.863Z,4.10
2017-11-15T04:43:55.404Z,4.10
2017-11-15T04:46:22.918Z,4.20
2017-11-15T04:48:51.237Z,4.10
2017-11-15T04:51:18.771Z,4.20
2017-11-15T04:53:46.310Z,4.20
2017-11-15T04:56:13.863Z,4.10
2017-11-15T04:58:41.380Z,3.90
2017-11-15T05:01:08.900Z,4.00
2017-11-15T05:03:37.617Z,3.90
2017-11-15T05:06:05.599Z,3.80
2017-11-15T05:08:33.121Z,3.70
2017-11-15T05:11:00.660Z,4.00
2017-11-15T05:13:28.198Z,3.90
2017-11-15T05:15:55.708Z,3.90
2017-11-15T05:18:23.244Z,3.90
2017-11-15T05:20:50.826Z,3.80
2017-11-15T05:23:18.352Z,4.00
2017-11-15T05:25:45.899Z,3.90
2017-11-15T05:28:13.411Z,3.90
2017-11-15T05:30:41.687Z,3.70
2017-11-15T05:33:09.233Z,3.70
2017-11-15T05:35:36.750Z,3.50
2017-11-15T05:38:04.264Z,3.70
2017-11-15T05:40:31.808Z,3.90
2017-11-15T05:42:59.339Z,4.00
2017-11-15T05:45:27.626Z,3.70
2017-11-15T05:47:55.179Z,3.70
2017-11-15T05:50:22.699Z,3.70
2017-11-15T05:52:50.224Z,3.70
2017-11-15T05:55:17.780Z,4.00
2017-11-15T05:57:45.309Z,3.70
2017-11-15T06:00:12.837Z,3.70
2017-11-15T06:02:40.433Z,3.70
2017-11-15T06:05:08.757Z,3.50
2017-11-15T06:07:36.291Z,3.60
2017-11-15T06:10:04.762Z,3.70
2017-11-15T06:12:32.243Z,3.70
2017-11-15T06:14:59.858Z,3.30
2017-11-15T06:17:27.371Z,3.50
2017-11-15T06:19:54.929Z,3.50
2017-11-15T06:22:22.647Z,3.60
2017-11-15T06:24:50.268Z,3.70
2017-11-15T06:27:17.903Z,3.60
2017-11-15T06:29:45.430Z,3.90
2017-11-15T06:32:12.987Z,3.60
2017-11-15T06:34:40.732Z,3.50
2017-11-15T06:37:09.190Z,3.50
2017-11-15T06:39:36.663Z,3.40
2017-11-15T06:42:04.212Z,3.50
2017-11-15T06:44:32.034Z,3.40
2017-11-15T06:46:59.607Z,3.40
2017-11-15T06:49:27.122Z,3.50
2017-11-15T06:51:54.640Z,3.50
2017-11-15T06:54:22.943Z,3.80
2017-11-15T06:56:50.456Z,3.40
2017-11-15T06:59:17.981Z,3.70
2017-11-15T07:01:46.290Z,3.60
2017-11-15T07:04:13.811Z,3.70
2017-11-15T07:06:41.333Z,3.70
2017-11-15T07:09:09.635Z,3.60
2017-11-15T07:11:37.158Z,3.80
2017-11-15T07:14:04.677Z,3.70
2017-11-15T07:16:34.004Z,3.70
2017-11-15T07:19:04.564Z,3.70
2017-11-15T07:21:32.097Z,3.70
2017-11-15T07:23:59.627Z,3.70
2017-11-15T07:26:27.175Z,3.70
2017-11-15T07:28:54.811Z,3.70
2017-11-15T07:31:22.348Z,4.00
2017-11-15T07:33:49.940Z,3.70
2017-11-15T07:36:17.632Z,3.90
2017-11-15T07:38:45.699Z,3.70
2017-11-15T07:41:13.453Z,3.60
2017-11-15T07:43:43.126Z,3.70
2017-11-15T07:46:10.921Z,3.70
2017-11-15T07:48:38.895Z,3.90
2017-11-15T07:51:06.534Z,3.90
2017-11-15T07:53:34.308Z,4.00
2017-11-15T07:56:02.513Z,4.10
2017-11-15T07:58:30.201Z,4.20
2017-11-15T08:00:57.902Z,4.20
2017-11-15T08:03:25.580Z,4.00
2017-11-15T08:05:53.196Z,4.10
2017-11-15T08:08:20.733Z,4.40
2017-11-15T08:10:48.252Z,4.10
2017-11-15T08:13:16.165Z,4.60
2017-11-15T08:15:43.709Z,4.40
2017-11-15T08:18:11.234Z,4.40
2017-11-15T08:20:39.532Z,4.50
2017-11-15T08:23:07.043Z,4.50
2017-11-15T08:25:34.566Z,4.50
2017-11-15T08:28:02.126Z,4.60
2017-11-15T08:30:29.652Z,4.30
2017-11-15T08:32:57.196Z,4.40
2017-11-15T08:35:24.707Z,4.30
2017-11-15T08:37:53.005Z,4.50
2017-11-15T08:40:20.553Z,4.10
2017-11-15T08:42:48.073Z,4.40
2017-11-15T08:45:16.376Z,4.20
2017-11-15T08:47:43.905Z,4.40
2017-11-15T08:50:11.509Z,4.20
2017-11-15T08:52:39.815Z,4.20
2017-11-15T08:55:07.339Z,4.10
2017-11-15T08:57:34.887Z,4.10
2017-11-15T09:00:02.427Z,4.10
2017-11-15T09:02:29.954Z,4.10
2017-11-15T09:04:57.498Z,4.10
2017-11-15T09:07:25.828Z,4.50
2017-11-15T09:09:53.381Z,4.40
2017-11-15T09:12:20.905Z,4.40
2017-11-15T09:14:48.428Z,4.60
2017-11-15T09:17:15.971Z,4.40
2017-11-15T09:19:43.485Z,4.40
2017-11-15T09:22:11.796Z,4.70
2017-11-15T09:24:39.314Z,4.70
2017-11-15T09:27:06.831Z,4.70
2017-11-15T09:29:35.620Z,4.40
2017-11-15T09:32:03.574Z,4.40
2017-11-15T09:34:31.255Z,4.70
2017-11-15T09:36:59.080Z,4.90
2017-11-15T09:39:26.984Z,5.10
2017-11-15T09:41:55.429Z,4.90
2017-11-15T09:44:23.552Z,4.90
2017-11-15T09:46:51.327Z,5.50
2017-11-15T09:49:18.853Z,5.80
2017-11-15T09:51:46.379Z,5.90
2017-11-15T09:54:13.929Z,6.20
2017-11-15T09:56:41.441Z,6.20
2017-11-15T09:59:08.988Z,6.40
2017-11-15T10:01:36.510Z,6.40
2017-11-15T10:04:04.042Z,5.90
2017-11-15T10:06:31.576Z,6.30
2017-11-15T10:08:59.097Z,6.20
2017-11-15T10:11:26.635Z,6.20
2017-11-15T10:13:54.161Z,6.30
2017-11-15T10:16:21.683Z,5.90
2017-11-15T10:18:49.222Z,6.10
2017-11-15T10:21:16.736Z,5.90
2017-11-15T10:23:44.279Z,5.90
2017-11-15T10:26:11.809Z,5.70
2017-11-15T10:28:39.352Z,6.10
2017-11-15T10:31:06.872Z,6.60
2017-11-15T10:33:35.156Z,6.50
2017-11-15T10:36:02.714Z,6.50
2017-11-15T10:38:30.228Z,6.50
2017-11-15T10:40:58.533Z,6.20
2017-11-15T10:43:26.057Z,6.20
2017-11-15T10:45:53.613Z,6.20
2017-11-15T10:48:21.132Z,6.00
2017-11-15T10:50:48.655Z,5.50
2017-11-15T10:53:16.201Z,5.50
2017-11-15T10:55:43.722Z,5.50
2017-11-15T10:58:11.264Z,5.70
2017-11-15T11:00:39.519Z,5.50
2017-11-15T11:03:07.070Z,5.20
2017-11-15T11:05:34.632Z,5.10
2017-11-15T11:08:02.154Z,5.60
2017-11-15T11:10:29.688Z,5.70
2017-11-15T11:12:57.205Z,5.40
2017-11-15T11:15:24.758Z,5.70
2017-11-15T11:17:52.288Z,5.50
2017-11-15T11:20:19.832Z,5.20
2017-11-15T11:22:47.375Z,5.50
2017-11-15T11:25:14.893Z,5.70
2017-11-15T11:27:42.444Z,5.60
2017-11-15T11:30:10.719Z,6.00
2017-11-15T11:32:39.012Z,6.00
2017-11-15T11:35:06.547Z,5.70
2017-11-15T11:37:34.062Z,6.20
2017-11-15T11:40:02.373Z,5.90
2017-11-15T11:42:29.892Z,6.00
2017-11-15T11:44:57.408Z,5.60
2017-11-15T11:47:25.715Z,6.20
2017-11-15T11:49:53.426Z,6.30
2017-11-15T11:52:21.009Z,6.60
2017-11-15T11:54:48.537Z,6.70
2017-11-15T11:57:16.472Z,6.80
2017-11-15T11:59:45.216Z,7.10
2017-11-15T12:02:12.794Z,7.20
2017-11-15T12:04:40.332Z,7.20
2017-11-15T12:07:08.169Z,7.20
2017-11-15T12:09:35.703Z,7.20
2017-11-15T12:12:03.242Z,7.40
2017-11-15T12:14:30.827Z,7.40
2017-11-15T12:16:58.370Z,7.60
2017-11-15T12:19:26.647Z,7.60
2017-11-15T12:21:54.183Z,7.70
2017-11-15T12:24:21.724Z,7.80
2017-11-15T12:26:49.253Z,7.40
2017-11-15T12:29:16.796Z,7.30
2017-11-15T12:31:44.308Z,7.40
2017-11-15T12:34:11.828Z,7.50
2017-11-15T12:36:39.628Z,7.30
2017-11-15T12:39:07.929Z,7.30
2017-11-15T12:41:35.469Z,7.30
2017-11-15T12:44:02.988Z,7.40
2017-11-15T12:46:31.273Z,7.30
2017-11-15T12:48:58.824Z,7.30
2017-11-15T12:51:27.108Z,7.40
2017-11-15T12:53:54.663Z,7.50
2017-11-15T12:56:22.520Z,7.40
2017-11-15T12:58:50.088Z,7.40
2017-11-15T13:01:18.398Z,7.30
2017-11-15T13:03:45.920Z,7.30
2017-11-15T13:06:13.461Z,7.60
2017-11-15T13:08:40.997Z,7.70
2017-11-15T13:11:09.276Z,7.50
2017-11-15T13:13:36.817Z,7.60
2017-11-15T13:16:04.332Z,7.60
2017-11-15T13:18:32.639Z,7.70
2017-11-15T13:21:00.148Z,7.60
2017-11-15T13:23:28.431Z,7.60
2017-11-15T13:25:55.977Z,7.70
2017-11-15T13:28:23.496Z,7.80
2017-11-15T13:30:51.808Z,7.70
2017-11-15T13:33:19.332Z,7.60
2017-11-15T13:35:46.856Z,7.70
2017-11-15T13:38:14.392Z,7.40
2017-11-15T13:40:42.681Z,7.30
2017-11-15T13:43:10.225Z,7.40
2017-11-15T13:45:37.735Z,7.50
2017-11-15T13:48:06.006Z,7.40
2017-11-15T13:50:34.340Z,7.20
2017-11-15T13:53:01.847Z,7.40
2017-11-15T13:55:29.404Z,7.20
2017-11-15T13:57:56.924Z,7.20
2017-11-15T14:00:25.237Z,7.20
2017-11-15T14:02:52.792Z,7.30
2017-11-15T14:05:20.317Z,7.20
2017-11-15T14:07:47.864Z,7.20
2017-11-15T14:10:15.436Z,7.30
2017-11-15T14:12:43.717Z,7.40
2017-11-15T14:15:11.269Z,7.30
2017-11-15T14:17:38.788Z,7.20
2017-11-15T14:20:07.102Z,7.40
2017-11-15T14:22:34.612Z,7.40
2017-11-15T14:25:02.138Z,7.40
2017-11-15T14:27:30.434Z,7.40
2017-11-15T14:29:57.944Z,7.40
2017-11-15T14:32:26.275Z,7.10
2017-11-15T14:34:53.814Z,7.30
2017-11-15T14:37:21.333Z,7.10
2017-11-15T14:39:48.862Z,7.10
2017-11-15T14:42:16.375Z,7.00
2017-11-15T14:44:43.911Z,7.10
2017-11-15T14:47:11.438Z,7.30
2017-11-15T14:49:38.970Z,6.90
2017-11-15T14:52:06.540Z,7.10
2017-11-15T14:54:34.060Z,6.90
2017-11-15T14:57:01.612Z,6.90
2017-11-15T14:59:29.136Z,6.80
2017-11-15T15:01:56.647Z,6.80
2017-11-15T15:04:24.189Z,6.80
2017-11-15T15:06:51.720Z,6.70
2017-11-15T15:09:20.029Z,6.70
2017-11-15T15:11:47.556Z,6.40
2017-11-15T15:14:15.129Z,6.50
2017-11-15T15:16:42.645Z,6.60
2017-11-15T15:19:10.195Z,6.70
2017-11-15T15:21:37.736Z,6.50
2017-11-15T15:24:05.255Z,6.10
2017-11-15T15:26:33.557Z,6.20
2017-11-15T15:29:01.113Z,6.20
2017-11-15T15:31:28.642Z,6.30
2017-11-15T15:33:56.155Z,6.30
2017-11-15T15:36:23.680Z,6.20
2017-11-15T15:38:51.995Z,5.80
2017-11-15T15:41:19.522Z,6.00
2017-11-15T15:43:47.069Z,6.00
2017-11-15T15:46:14.602Z,6.00
2017-11-15T15:48:42.140Z,5.80
2017-11-15T15:51:09.665Z,5.70
2017-11-15T15:53:37.187Z,6.00
2017-11-15T15:56:04.738Z,5.70
2017-11-15T15:58:32.266Z,5.50
2017-11-15T16:00:59.808Z,5.60
2017-11-15T16:03:27.328Z,5.40
2017-11-15T16:05:54.880Z,5.70
2017-11-15T16:08:22.419Z,5.60
2017-11-15T16:10:49.935Z,5.50
2017-11-15T16:13:18.239Z,5.60
2017-11-15T16:15:45.759Z,5.70
2017-11-15T16:18:13.300Z,5.20
2017-11-15T16:20:40.829Z,5.40
2017-11-15T16:23:09.138Z,5.20
2017-11-15T16:25:36.647Z,5.30
2017-11-15T16:28:04.167Z,5.30
2017-11-15T16:30:32.472Z,5.50
2017-11-15T16:32:59.981Z,5.20
2017-11-15T16:35:28.288Z,5.20
2017-11-15T16:37:55.861Z,5.60
2017-11-15T16:40:23.429Z,5.20
2017-11-15T16:42:50.936Z,5.60
2017-11-15T16:45:18.456Z,5.50
2017-11-15T16:47:45.995Z,5.70
2017-11-15T16:50:13.507Z,5.70
2017-11-15T16:52:41.835Z,5.70
2017-11-15T16:55:09.355Z,5.70
2017-11-15T16:57:36.908Z,5.70
2017-11-15T17:00:04.427Z,5.50
2017-11-15T17:02:31.955Z,5.40
2017-11-15T17:04:59.510Z,5.70
2017-11-15T17:07:27.044Z,5.70
2017-11-15T17:09:55.403Z,5.40
2017-11-15T17:12:22.948Z,5.70
2017-11-15T17:14:50.495Z,5.50
2017-11-15T17:17:18.779Z,5.40
2017-11-15T17:19:47.064Z,5.40
2017-11-15T17:22:14.613Z,5.60
2017-11-15T17:24:42.149Z,5.40
2017-11-15T17:27:09.700Z,5.70
2017-11-15T17:29:37.228Z,5.60
2017-11-15T17:32:04.763Z,5.80
2017-11-15T17:34:32.284Z,5.50
2017-11-15T17:37:00.586Z,5.70
2017-11-15T17:39:28.128Z,5.40
2017-11-15T17:41:55.651Z,5.70
2017-11-15T17:44:23.200Z,5.70
2017-11-15T17:46:50.724Z,5.40
2017-11-15T17:49:18.338Z,5.50
2017-11-15T17:51:45.912Z,5.40
2017-11-15T17:54:13.457Z,5.60
2017-11-15T17:56:41.777Z,5.70
2017-11-15T17:59:09.292Z,5.80
2017-11-15T18:01:36.829Z,5.50
2017-11-15T18:04:04.353Z,5.70
2017-11-15T18:06:32.664Z,5.50
2017-11-15T18:09:00.624Z,5.80
2017-11-15T18:11:28.211Z,6.00
2017-11-15T18:13:56.516Z,5.90
2017-11-15T18:16:24.079Z,5.50
2017-11-15T18:18:51.706Z,5.50
2017-11-15T18:21:19.375Z,5.60
2017-11-15T18:23:46.975Z,5.70
2017-11-15T18:26:14.603Z,5.50
2017-11-15T18:28:43.433Z,5.80
2017-11-15T18:31:10.954Z,5.90
2017-11-15T18:33:38.521Z,5.60
2017-11-15T18:36:06.147Z,5.70
2017-11-15T18:38:33.680Z,5.50
2017-11-15T18:41:01.240Z,6.00
2017-11-15T18:43:28.777Z,5.90
2017-11-15T18:45:56.391Z,6.00
2017-11-15T18:48:26.869Z,5.90
2017-11-15T18:50:55.322Z,5.70
2017-11-15T18:53:23.056Z,5.90
2017-11-15T18:55:50.608Z,5.50
2017-11-15T18:58:18.196Z,5.80
2017-11-15T19:00:46.496Z,5.80
2017-11-15T19:03:14.043Z,5.50
2017-11-15T19:05:41.577Z,5.90
2017-11-15T19:08:09.107Z,5.50
2017-11-15T19:10:37.445Z,5.40
2017-11-15T19:13:04.964Z,5.50
2017-11-15T19:15:32.510Z,5.50
2017-11-15T19:18:00.024Z,6.00
2017-11-15T19:20:27.698Z,5.50
2017-11-15T19:22:55.247Z,5.80
2017-11-15T19:25:22.764Z,6.00
2017-11-15T19:27:50.304Z,5.70
2017-11-15T19:30:17.827Z,5.90
2017-11-15T19:32:46.163Z,5.70
2017-11-15T19:35:13.692Z,5.80
2017-11-15T19:37:41.275Z,5.50
2017-11-15T19:40:08.857Z,5.70
2017-11-15T19:42:36.414Z,6.00
2017-11-15T19:45:03.976Z,5.70
2017-11-15T19:47:31.506Z,5.80
2017-11-15T19:49:59.051Z,5.90
2017-11-15T19:52:26.576Z,5.70
2017-11-15T19:54:54.515Z,5.90
2017-11-15T19:57:22.040Z,6.00
2017-11-15T19:59:50.346Z,5.90
2017-11-15T20:02:17.864Z,5.70
2017-11-15T20:04:45.379Z,6.00
2017-11-15T20:07:12.971Z,5.80
2017-11-15T20:09:40.502Z,5.60
2017-11-15T20:12:08.046Z,6.10
2017-11-15T20:14:35.576Z,5.70
2017-11-15T20:17:03.127Z,5.90
2017-11-15T20:19:30.648Z,5.70
2017-11-15T20:21:58.941Z,6.00
2017-11-15T20:24:26.482Z,5.90
2017-11-15T20:26:54.012Z,5.90
2017-11-15T20:29:22.324Z,6.00
2017-11-15T20:31:49.840Z,5.90
2017-11-15T20:34:17.397Z,5.80
2017-11-15T20:36:44.918Z,5.90
2017-11-15T20:39:12.429Z,6.00
2017-11-15T20:41:39.996Z,6.00
2017-11-15T20:44:08.283Z,5.70
2017-11-15T20:46:35.878Z,5.90
2017-11-15T20:49:03.397Z,5.90
2017-11-15T20:51:31.726Z,5.90
2017-11-15T20:53:59.256Z,5.90
2017-11-15T20:56:27.539Z,6.00
2017-11-15T20:58:55.100Z,6.10
2017-11-15T21:01:22.610Z,5.90
2017-11-15T21:03:50.919Z,5.70
2017-11-15T21:06:18.450Z,6.00
2017-11-15T21:08:46.010Z,5.80
2017-11-15T21:11:13.565Z,5.80
2017-11-15T21:13:41.400Z,6.00
2017-11-15T21:16:08.983Z,5.50
2017-11-15T21:18:36.581Z,5.90
2017-11-15T21:21:04.206Z,5.80
2017-11-15T21:23:32.563Z,5.90
2017-11-15T21:26:00.296Z,5.70
2017-11-15T21:28:28.617Z,5.70
2017-11-15T21:30:56.805Z,6.00
2017-11-15T21:33:24.353Z,5.90
2017-11-15T21:35:51.903Z,5.80
2017-11-15T21:38:20.315Z,6.00
2017-11-15T21:40:47.926Z,5.90
2017-11-15T21:43:16.410Z,6.00
2017-11-15T21:45:43.933Z,5.70
2017-11-15T21:48:12.266Z,5.50
2017-11-15T21:50:39.843Z,5.50
2017-11-15T21:53:08.141Z,5.60
2017-11-15T21:55:35.933Z,5.70
2017-11-15T21:58:03.556Z,5.80
2017-11-15T22:00:31.307Z,5.70
2017-11-15T22:02:59.066Z,5.50
2017-11-15T22:05:26.797Z,5.70
2017-11-15T22:07:54.488Z,5.50
2017-11-15T22:10:22.098Z,5.60
2017-11-15T22:12:49.688Z,5.70
2017-11-15T22:15:17.296Z,5.70
2017-11-15T22:17:44.977Z,5.70
2017-11-15T22:20:13.309Z,5.50
2017-11-15T22:22:41.029Z,5.60
2017-11-15T22:25:09.959Z,5.60
2017-11-15T22:27:37.604Z,5.70
2017-11-15T22:30:05.150Z,5.50
2017-11-15T22:32:33.522Z,5.20
2017-11-15T22:35:01.898Z,5.50
2017-11-15T22:37:29.557Z,5.20
2017-11-15T22:39:57.119Z,5.20
2017-11-15T22:42:24.769Z,5.20
2017-11-15T22:44:52.392Z,5.20
2017-11-15T22:47:19.923Z,5.20
2017-11-15T22:49:47.455Z,5.10
2017-11-15T22:52:15.775Z,5.10
2017-11-15T22:54:43.293Z,5.00
2017-11-15T22:57:10.812Z,5.20
2017-11-15T22:59:39.120Z,5.00
2017-11-15T23:02:06.826Z,4.90
2017-11-15T23:04:34.492Z,5.30
2017-11-15T23:07:01.999Z,5.10
2017-11-15T23:09:30.048Z,5.10
2017-11-15T23:11:57.858Z,5.20
2017-11-15T23:14:25.413Z,5.20
2017-11-15T23:36:56.565Z,5.00
2017-11-15T23:39:24.102Z,5.10
2017-11-15T23:41:51.673Z,5.10
2017-11-15T23:44:19.487Z,5.20
2017-11-15T23:46:47.027Z,5.00
2017-11-15T23:49:14.558Z,5.10
2017-11-15T23:51:42.112Z,4.70
2017-11-15T23:54:10.576Z,4.90
2017-11-15T23:56:38.119Z,4.90
2017-11-15T23:59:05.678Z,5.20
